Time;durP1;ratioP1;P1;durP2;ratioP2;P2;SDS_P1;SDS_P2;PMS_P1;PMS_P2;Temp;Humidity;BMP_temperature;BMP_pressure;BME280_temperature;BME280_humidity;BME280_pressure;Samples;Min_cycle;Max_cycle;Signal;HPM_P1;HPM_P2
2021/12/19 00:02:06;;;;;;;3.10;2.42;;;;;;;-0.17;71.94;97014.59;5113441;28;20027;-69
2021/12/19 00:08:26;;;;;;;3.45;2.63;;;;;;;-0.21;71.25;97016.25;5113331;28;20397;-67
2021/12/19 00:10:08;;;;;;;3.20;2.75;;;;;;;-0.17;70.29;96999.19;5113408;28;20116;-64
2021/12/19 00:12:33;;;;;;;3.03;2.22;;;;;;;-0.14;71.36;97001.78;5113216;28;20058;-67
2021/12/19 00:14:59;;;;;;;4.28;2.60;;;;;;;-0.14;72.42;96999.22;5113216;28;20050;-63
2021/12/19 00:17:25;;;;;;;4.07;2.67;;;;;;;-0.16;72.27;96995.75;5115377;28;20072;-66
2021/12/19 00:19:50;;;;;;;3.17;2.30;;;;;;;-0.14;71.86;97002.66;5117287;28;20032;-65
2021/12/19 00:22:16;;;;;;;3.15;2.72;;;;;;;-0.15;71.76;97003.47;5116941;28;20039;-67
2021/12/19 00:24:41;;;;;;;2.70;2.30;;;;;;;-0.13;71.60;96999.22;5117008;28;20481;-64
2021/12/19 00:27:07;;;;;;;4.60;2.95;;;;;;;-0.08;71.78;96998.41;5117496;28;20023;-64
2021/12/19 00:29:33;;;;;;;4.22;3.47;;;;;;;-0.09;71.93;96986.41;5117316;28;20115;-64
2021/12/19 00:31:58;;;;;;;6.78;4.28;;;;;;;-0.11;72.02;96993.22;5116960;28;20026;-66
2021/12/19 00:34:24;;;;;;;4.57;3.25;;;;;;;-0.15;72.33;96998.34;5116998;28;20035;-62
2021/12/19 00:36:50;;;;;;;5.03;3.22;;;;;;;-0.19;72.05;96985.41;5116882;28;20043;-63
2021/12/19 00:39:15;;;;;;;4.82;3.47;;;;;;;-0.21;72.15;96994.84;5116865;28;20385;-66
2021/12/19 00:41:41;;;;;;;4.53;3.35;;;;;;;-0.26;72.02;96987.94;5116906;28;20354;-67
2021/12/19 00:44:11;;;;;;;5.22;2.80;;;;;;;-0.32;71.82;96984.41;5116753;28;20027;-64
2021/12/19 00:46:53;;;;;;;3.88;2.78;;;;;;;-0.38;71.59;96985.22;5116815;28;20019;-68
2021/12/19 00:49:20;;;;;;;4.00;2.63;;;;;;;-0.46;71.73;96982.53;5116650;28;20062;-64
2021/12/19 00:51:46;;;;;;;3.50;2.70;;;;;;;-0.53;71.63;96981.59;5116590;28;20016;-66
2021/12/19 00:54:13;;;;;;;3.65;2.65;;;;;;;-0.59;71.96;96980.66;5116626;28;20019;-64
2021/12/19 00:56:43;;;;;;;2.45;2.25;;;;;;;-0.68;71.84;96974.56;5116548;28;20020;-66
2021/12/19 00:59:10;;;;;;;2.08;1.80;;;;;;;-0.77;71.86;96977.00;5116398;27;20027;-67
2021/12/19 01:01:37;;;;;;;3.25;1.77;;;;;;;-0.88;72.26;96968.28;5116359;27;20381;-66
2021/12/19 01:04:09;;;;;;;3.28;2.55;;;;;;;-0.94;72.36;96969.91;5116411;28;20031;-65
2021/12/19 01:06:35;;;;;;;2.70;2.30;;;;;;;-1.01;72.17;96957.81;5116401;28;20749;-68
2021/12/19 01:09:01;;;;;;;2.47;1.85;;;;;;;-1.06;72.15;96962.00;5116374;27;20461;-63
2021/12/19 01:11:27;;;;;;;1.67;1.58;;;;;;;-1.12;72.20;96964.50;5116162;28;20373;-67
2021/12/19 01:13:53;;;;;;;2.35;1.40;;;;;;;-1.19;72.09;96955.81;5116234;28;20024;-65
2021/12/19 01:16:19;;;;;;;1.95;1.60;;;;;;;-1.26;72.23;96952.31;5116214;28;20461;-62
2021/12/19 01:18:45;;;;;;;2.75;1.90;;;;;;;-1.32;72.33;96960.75;5116270;28;20035;-65
2021/12/19 01:21:10;;;;;;;3.72;1.98;;;;;;;-1.41;72.28;96961.47;5116139;28;20022;-64
2021/12/19 01:23:37;;;;;;;2.50;2.10;;;;;;;-1.43;72.42;96963.19;5115703;28;20040;-65
2021/12/19 01:26:03;;;;;;;3.88;2.10;;;;;;;-1.60;73.05;96962.03;5115886;28;20031;-67
2021/12/19 01:28:29;;;;;;;1.80;1.70;;;;;;;-1.67;73.03;96955.91;5115212;28;20022;-65
2021/12/19 01:30:54;;;;;;;2.35;1.92;;;;;;;-1.76;72.96;96950.63;5115867;28;20497;-63
2021/12/19 01:33:20;;;;;;;1.70;1.60;;;;;;;-1.85;73.12;96943.63;5115856;28;20024;-67
2021/12/19 01:35:45;;;;;;;1.98;1.70;;;;;;;-1.96;73.21;96946.03;5114525;28;20428;-63
2021/12/19 01:38:11;;;;;;;2.72;1.98;;;;;;;-2.09;73.08;96937.22;5115745;27;20473;-68
2021/12/19 01:40:37;;;;;;;2.28;1.80;;;;;;;-2.19;73.28;96938.78;5115595;28;20027;-65
2021/12/19 01:43:03;;;;;;;4.20;2.03;;;;;;;-2.22;73.47;96929.31;5115858;28;20025;-68
2021/12/19 01:45:32;;;;;;;2.38;1.75;;;;;;;-2.27;73.47;96923.22;5115553;28;20023;-67
2021/12/19 01:48:00;;;;;;;3.15;1.80;;;;;;;-2.48;73.64;96924.56;5115646;28;20068;-68
2021/12/19 01:50:27;;;;;;;2.22;1.75;;;;;;;-2.52;73.74;96922.78;5115601;28;20024;-66
2021/12/19 01:52:53;;;;;;;4.10;1.65;;;;;;;-2.59;74.00;96916.63;5115604;28;20051;-63
2021/12/19 01:55:19;;;;;;;2.05;1.65;;;;;;;-2.64;74.19;96909.69;5115611;28;20066;-64
2021/12/19 01:57:45;;;;;;;3.05;1.63;;;;;;;-2.76;74.62;96902.63;5115334;28;20061;-67
2021/12/19 02:00:27;;;;;;;2.20;1.75;;;;;;;-2.84;74.76;96900.78;5115296;28;20437;-63
2021/12/19 02:02:55;;;;;;;2.65;1.33;;;;;;;-2.88;74.89;96899.00;5115271;28;20027;-66
2021/12/19 02:05:22;;;;;;;2.20;1.88;;;;;;;-2.88;74.99;96893.88;5115171;28;20030;-66
2021/12/19 02:07:48;;;;;;;3.42;2.00;;;;;;;-2.89;74.70;96898.97;5115189;28;20451;-64
2021/12/19 02:10:18;;;;;;;3.45;2.25;;;;;;;-2.96;74.83;96891.16;5115083;28;20469;-65
2021/12/19 02:12:45;;;;;;;11.60;4.55;;;;;;;-3.15;75.58;96889.91;5115009;28;20029;-64
2021/12/19 02:15:16;;;;;;;6.50;2.75;;;;;;;-3.13;75.58;96889.94;5114858;28;20085;-65
2021/12/19 02:17:42;;;;;;;3.45;2.10;;;;;;;-3.17;75.46;96881.31;5114949;28;20053;-66
2021/12/19 02:20:10;;;;;;;3.10;2.00;;;;;;;-3.13;75.10;96877.13;5114947;28;20103;-64
2021/12/19 02:22:36;;;;;;;3.13;2.30;;;;;;;-3.12;74.97;96876.28;5114565;28;20059;-68
2021/12/19 02:25:02;;;;;;;3.45;2.05;;;;;;;-3.14;75.16;96875.38;5114687;28;20063;-64
2021/12/19 02:27:29;;;;;;;2.03;1.65;;;;;;;-3.17;75.10;96871.94;5114783;27;20076;-63
2021/12/19 02:29:58;;;;;;;2.20;1.73;;;;;;;-3.14;74.68;96868.56;5114744;28;20097;-68
2021/12/19 02:32:26;;;;;;;4.37;1.77;;;;;;;-3.18;74.61;96864.22;5114670;28;20168;-63
2021/12/19 02:34:54;;;;;;;2.10;1.63;;;;;;;-3.29;75.00;96861.41;5114642;28;20291;-64
2021/12/19 02:40:23;;;;;;;2.22;1.70;;;;;;;-3.32;75.35;96859.66;5114044;28;20465;-66
2021/12/19 02:48:14;;;;;;;4.55;2.55;;;;;;;-3.35;75.38;96858.72;5114439;28;20066;-64
2021/12/19 02:50:51;;;;;;;5.03;2.40;;;;;;;-3.40;75.51;96856.09;5114373;28;20028;-66
2021/12/19 02:53:26;;;;;;;7.43;2.45;;;;;;;-3.36;74.85;96857.88;5114427;28;20039;-68
2021/12/19 02:55:52;;;;;;;5.22;2.58;;;;;;;-3.48;74.90;96844.81;5114364;28;20089;-66
2021/12/19 02:58:17;;;;;;;5.85;2.10;;;;;;;-3.49;74.71;96845.66;5114148;28;20035;-68
2021/12/19 03:00:43;;;;;;;3.92;1.80;;;;;;;-3.57;74.64;96841.22;5114076;28;20106;-65
2021/12/19 03:03:09;;;;;;;3.22;2.05;;;;;;;-3.62;74.51;96840.25;5114143;28;20053;-64
2021/12/19 03:05:37;;;;;;;2.00;1.70;;;;;;;-3.64;74.54;96835.94;5114050;28;20442;-64
2021/12/19 03:08:03;;;;;;;2.63;1.85;;;;;;;-3.66;74.80;96843.56;5114086;28;20019;-67
2021/12/19 03:18:32;;;;;;;2.75;2.10;;;;;;;-3.72;74.17;96844.28;5114190;28;20038;-68
2021/12/19 03:20:59;;;;;;;2.53;2.00;;;;;;;-3.70;74.07;96844.31;5113831;28;20019;-65
2021/12/19 03:23:25;;;;;;;4.32;1.88;;;;;;;-3.75;74.04;96841.66;5113476;28;20040;-63
2021/12/19 03:25:50;;;;;;;2.65;2.10;;;;;;;-3.86;74.02;96838.84;5113609;28;20423;-65
2021/12/19 03:28:17;;;;;;;2.53;1.80;;;;;;;-3.97;74.02;96835.16;5113654;28;20016;-62
2021/12/19 03:30:45;;;;;;;2.70;2.10;;;;;;;-4.02;74.46;96841.84;5113855;28;20374;-63
2021/12/19 03:33:11;;;;;;;3.92;2.45;;;;;;;-4.01;74.55;96838.50;5113618;28;20049;-65
2021/12/19 03:35:38;;;;;;;2.90;2.40;;;;;;;-4.07;74.68;96828.97;5113501;28;20144;-68
2021/12/19 03:38:07;;;;;;;4.03;2.17;;;;;;;-4.16;74.76;96829.59;5113536;28;20102;-67
2021/12/19 03:40:36;;;;;;;4.32;2.42;;;;;;;-4.27;75.06;96820.81;5113658;28;20028;-65
2021/12/19 03:43:05;;;;;;;4.10;2.42;;;;;;;-4.27;75.17;96826.78;5113686;28;20381;-67
2021/12/19 03:45:30;;;;;;;4.22;2.70;;;;;;;-4.24;75.35;96821.72;5113594;28;20070;-67
2021/12/19 03:47:56;;;;;;;2.83;2.13;;;;;;;-4.33;75.50;96806.19;5113593;28;20065;-66
2021/12/19 03:50:23;;;;;;;4.28;2.53;;;;;;;-4.31;75.35;96818.19;5113443;28;20024;-67
2021/12/19 03:52:54;;;;;;;3.28;2.33;;;;;;;-4.33;75.35;96813.88;5116354;28;20016;-65
2021/12/19 03:55:21;;;;;;;3.63;1.98;;;;;;;-4.29;75.14;96812.22;5117791;28;20024;-64
2021/12/19 03:57:48;;;;;;;5.75;2.90;;;;;;;-4.31;75.17;96805.41;5117699;28;20026;-69
2021/12/19 04:00:22;;;;;;;3.47;2.25;;;;;;;-4.31;75.02;96800.28;5117645;28;20031;-67
2021/12/19 04:02:48;;;;;;;2.92;2.25;;;;;;;-4.35;74.89;96790.81;5117799;28;20480;-63
2021/12/19 04:05:13;;;;;;;3.60;2.15;;;;;;;-4.39;74.89;96799.25;5117401;28;20031;-67
2021/12/19 04:07:39;;;;;;;3.78;2.38;;;;;;;-4.48;75.13;96802.41;5117630;28;20030;-67
2021/12/19 04:10:05;;;;;;;3.85;2.70;;;;;;;-4.53;75.93;96801.44;5116285;28;20027;-66
2021/12/19 04:12:31;;;;;;;4.05;2.67;;;;;;;-4.50;76.08;96788.75;5117442;28;20031;-65
2021/12/19 04:14:56;;;;;;;3.28;2.60;;;;;;;-4.46;75.84;96795.66;5117439;28;20480;-68
2021/12/19 04:17:22;;;;;;;5.38;2.53;;;;;;;-4.53;75.87;96791.22;5117294;28;20574;-65
2021/12/19 04:19:49;;;;;;;3.42;2.58;;;;;;;-4.45;75.52;96794.81;5117302;28;20022;-68
2021/12/19 04:22:14;;;;;;;2.88;2.00;;;;;;;-4.38;75.52;96790.75;5117038;28;20121;-67
2021/12/19 04:24:40;;;;;;;3.03;2.10;;;;;;;-4.37;75.04;96783.97;5117037;28;20035;-69
2021/12/19 04:27:05;;;;;;;4.53;2.30;;;;;;;-4.40;75.02;96786.44;5117121;28;20024;-68
2021/12/19 04:29:31;;;;;;;4.75;2.88;;;;;;;-4.38;74.97;96783.09;5117225;28;20564;-68
2021/12/19 04:31:56;;;;;;;2.15;1.95;;;;;;;-4.41;75.16;96787.25;5117187;28;20034;-67
2021/12/19 04:34:23;;;;;;;2.33;1.90;;;;;;;-4.45;75.37;96787.16;5116977;28;20020;-66
2021/12/19 04:36:55;;;;;;;3.90;2.17;;;;;;;-4.52;75.09;96784.44;5116949;28;20093;-65
2021/12/19 04:39:37;;;;;;;3.15;2.33;;;;;;;-4.48;75.47;96781.13;5116947;28;20496;-66
2021/12/19 04:55:44;;;;;;;2.83;1.98;;;;;;;-4.57;75.68;96766.44;5116744;28;20022;-66
2021/12/19 05:01:01;;;;;;;2.65;1.85;;;;;;;-4.57;76.45;96758.78;5116472;28;20505;-68
2021/12/19 05:16:40;;;;;;;8.25;1.48;;;;;;;-4.59;75.53;96748.53;5116313;28;20084;-65
2021/12/19 05:19:22;;;;;;;2.10;1.73;;;;;;;-4.61;75.18;96732.28;5116314;28;20055;-67
2021/12/19 05:21:51;;;;;;;2.63;1.58;;;;;;;-4.61;75.10;96736.53;5115843;28;20492;-63
2021/12/19 05:26:44;;;;;;;1.75;1.40;;;;;;;-4.64;75.13;96736.47;5115935;28;20081;-68
2021/12/19 05:29:10;;;;;;;2.00;1.70;;;;;;;-4.65;75.09;96737.28;5115947;28;20481;-66
2021/12/19 05:31:37;;;;;;;1.70;1.30;;;;;;;-4.65;75.24;96750.03;5115994;28;20020;-64
2021/12/19 05:34:03;;;;;;;2.53;1.83;;;;;;;-4.74;75.55;96745.56;5115967;28;20035;-68
2021/12/19 05:47:06;;;;;;;3.17;2.10;;;;;;;-4.58;74.57;96751.91;5115997;28;20026;-69
2021/12/19 05:49:32;;;;;;;2.17;1.65;;;;;;;-4.59;75.12;96753.63;5115518;28;20027;-66
2021/12/19 05:51:58;;;;;;;2.03;1.83;;;;;;;-4.56;75.33;96752.84;5115542;28;20480;-63
2021/12/19 05:54:24;;;;;;;2.55;1.75;;;;;;;-4.58;75.51;96749.38;5115451;28;20032;-72
2021/12/19 05:56:51;;;;;;;3.47;2.10;;;;;;;-4.60;75.93;96745.94;5115375;28;20020;-66
2021/12/19 05:59:17;;;;;;;3.33;1.80;;;;;;;-4.56;76.02;96745.16;5115329;28;20032;-69
2021/12/19 06:01:43;;;;;;;2.20;1.73;;;;;;;-4.58;75.51;96742.56;5115261;28;20016;-65
2021/12/19 06:04:10;;;;;;;3.40;1.80;;;;;;;-4.47;75.42;96741.97;5115227;28;20042;-66
2021/12/19 06:06:35;;;;;;;4.70;2.75;;;;;;;-4.50;75.22;96737.66;5115226;28;20032;-64
2021/12/19 06:09:02;;;;;;;4.80;2.38;;;;;;;-4.45;75.35;96730.13;5115262;28;20039;-67
2021/12/19 06:11:28;;;;;;;4.78;2.65;;;;;;;-4.37;75.07;96728.59;5115184;28;20076;-68
2021/12/19 06:13:54;;;;;;;2.30;1.90;;;;;;;-4.34;75.00;96728.69;5115133;28;20062;-67
2021/12/19 06:16:19;;;;;;;2.55;1.83;;;;;;;-4.29;74.40;96723.69;5114811;28;20051;-66
2021/12/19 06:18:47;;;;;;;1.92;1.42;;;;;;;-4.24;74.39;96734.84;5115052;28;20043;-71
2021/12/19 06:21:13;;;;;;;2.50;1.85;;;;;;;-4.23;73.86;96731.50;5114953;28;20432;-67
2021/12/19 06:23:39;;;;;;;2.97;1.80;;;;;;;-4.12;74.38;96731.72;5114544;28;20047;-69
2021/12/19 06:26:10;;;;;;;1.88;1.40;;;;;;;-2.95;73.13;96717.91;5114732;28;20377;-63
2021/12/19 06:28:36;;;;;;;1.27;1.17;;;;;;;-0.84;67.13;96719.09;5114831;28;20031;-66
2021/12/19 06:31:01;;;;;;;1.33;1.23;;;;;;;1.27;59.61;96712.63;5114742;28;20016;-67
2021/12/19 06:33:27;;;;;;;1.35;1.13;;;;;;;3.06;54.38;96710.56;5114790;28;20031;-65
2021/12/19 06:35:52;;;;;;;1.55;1.30;;;;;;;4.53;49.78;96694.69;5114570;28;20023;-66
2021/12/19 06:38:18;;;;;;;2.05;1.20;;;;;;;5.88;45.99;96699.78;5114527;28;20477;-68
2021/12/19 06:40:44;;;;;;;2.08;1.42;;;;;;;7.01;42.99;96705.50;5114710;28;20015;-71
2021/12/19 06:43:09;;;;;;;1.23;1.10;;;;;;;7.98;41.38;96693.75;5114651;27;20027;-68
2021/12/19 06:45:35;;;;;;;1.55;1.45;;;;;;;9.12;38.97;96697.69;5114316;28;20377;-65
2021/12/19 06:48:00;;;;;;;1.70;1.40;;;;;;;10.19;36.67;96696.06;5114397;28;20071;-66
2021/12/19 06:50:26;;;;;;;2.97;1.48;;;;;;;11.00;35.20;96706.34;5114291;28;20015;-63
2021/12/19 06:52:52;;;;;;;1.95;1.48;;;;;;;11.98;32.94;96709.59;5114487;28;20031;-68
2021/12/19 06:55:19;;;;;;;1.38;1.17;;;;;;;12.50;32.50;96701.31;5113099;28;20020;-68
2021/12/19 06:57:45;;;;;;;1.25;1.15;;;;;;;13.12;31.21;96691.63;5114425;28;20023;-68
2021/12/19 07:00:19;;;;;;;1.23;1.00;;;;;;;13.85;29.92;96693.47;5113005;28;20023;-67
2021/12/19 07:02:45;;;;;;;1.30;1.20;;;;;;;14.20;29.38;96684.78;5114312;28;20077;-71
2021/12/19 07:05:11;;;;;;;2.88;1.17;;;;;;;14.73;28.94;96682.09;5114014;28;20557;-69
2021/12/19 07:07:37;;;;;;;1.40;1.30;;;;;;;15.01;28.67;96683.28;5114114;28;20023;-67
2021/12/19 07:10:04;;;;;;;1.27;1.00;;;;;;;15.45;28.21;96688.84;5114055;28;20065;-65
2021/12/19 07:12:30;;;;;;;1.40;1.20;;;;;;;15.41;28.00;96680.25;5114018;28;20031;-68
2021/12/19 07:14:57;;;;;;;1.50;1.40;;;;;;;15.89;27.55;96692.53;5113925;28;20073;-65
2021/12/19 07:17:24;;;;;;;1.52;1.23;;;;;;;16.37;27.12;96688.97;5113846;28;20024;-69
2021/12/19 07:19:51;;;;;;;1.58;1.48;;;;;;;16.86;26.37;96688.75;5113960;28;20427;-63
2021/12/19 07:22:17;;;;;;;2.70;1.90;;;;;;;17.25;25.76;96683.75;5113664;28;20039;-65
2021/12/19 07:24:45;;;;;;;2.40;2.20;;;;;;;17.01;25.91;96684.31;5113859;28;20092;-66
2021/12/19 07:27:12;;;;;;;7.70;4.30;;;;;;;16.92;25.34;96686.56;5113046;28;20088;-71
2021/12/19 07:29:37;;;;;;;9.00;7.05;;;;;;;15.90;26.99;96694.25;5113630;28;20032;-63
2021/12/19 07:32:03;;;;;;;2.95;2.75;;;;;;;16.01;27.06;96696.31;5113732;28;20100;-68
2021/12/19 07:34:32;;;;;;;2.70;2.50;;;;;;;16.63;25.91;96697.13;5113826;28;20027;-68
2021/12/19 07:36:58;;;;;;;2.55;2.35;;;;;;;17.09;25.54;96681.19;5113711;28;20062;-66
2021/12/19 07:41:58;;;;;;;4.07;2.85;;;;;;;18.56;23.48;96678.81;5113755;28;20032;-69
2021/12/19 07:44:24;;;;;;;3.83;2.70;;;;;;;19.09;23.01;96677.03;5113371;28;20098;-68
2021/12/19 07:46:50;;;;;;;2.72;2.20;;;;;;;19.41;22.67;96673.88;5113587;28;20026;-64
2021/12/19 07:49:16;;;;;;;5.45;2.00;;;;;;;19.62;22.76;96669.78;5113464;28;20023;-70
2021/12/19 07:51:42;;;;;;;2.30;2.10;;;;;;;20.11;22.04;96670.66;5113489;28;20529;-65
2021/12/19 07:54:07;;;;;;;2.90;2.38;;;;;;;20.68;21.09;96665.47;5112138;28;20084;-73
2021/12/19 07:56:33;;;;;;;2.72;1.80;;;;;;;21.17;20.98;96664.44;5113603;28;20020;-67
2021/12/19 07:58:59;;;;;;;2.25;1.95;;;;;;;21.17;20.71;96664.44;5113392;28;20110;-69
2021/12/19 08:01:24;;;;;;;2.97;2.42;;;;;;;21.46;20.33;96653.25;5113377;28;20023;-69
2021/12/19 08:03:50;;;;;;;1.83;1.73;;;;;;;21.56;20.32;96651.56;5113405;28;20028;-66
2021/12/19 08:06:16;;;;;;;1.92;1.83;;;;;;;21.87;19.60;96650.03;5113313;28;20020;-72
2021/12/19 08:08:47;;;;;;;2.33;1.67;;;;;;;21.64;20.15;96644.78;5113427;28;20024;-67
2021/12/19 08:13:56;;;;;;;2.17;1.65;;;;;;;21.77;20.43;96637.50;5113670;28;20042;-70
2021/12/19 08:16:22;;;;;;;2.80;1.73;;;;;;;21.98;20.12;96641.16;5113319;28;20027;-71
2021/12/19 08:18:49;;;;;;;2.13;1.60;;;;;;;21.75;20.59;96631.44;5113291;28;20023;-67
2021/12/19 08:21:14;;;;;;;2.05;1.80;;;;;;;21.23;20.76;96631.19;5113441;28;20122;-69
2021/12/19 08:23:40;;;;;;;1.85;1.52;;;;;;;20.60;21.82;96622.72;5113095;28;20082;-68
2021/12/19 08:26:06;;;;;;;1.77;1.67;;;;;;;20.60;22.12;96617.41;5113319;28;20020;-65
2021/12/19 08:28:32;;;;;;;2.10;1.90;;;;;;;19.68;22.44;96622.41;5113122;28;20525;-63
2021/12/19 08:30:58;;;;;;;2.58;1.90;;;;;;;19.32;23.30;96610.88;5113139;28;20015;-68
2021/12/19 08:33:24;;;;;;;2.40;2.00;;;;;;;18.52;24.58;96608.47;5113389;28;20012;-64
2021/12/19 08:35:49;;;;;;;3.25;2.72;;;;;;;17.07;26.58;96609.13;5113211;28;20474;-63
2021/12/19 08:38:15;;;;;;;6.28;2.60;;;;;;;16.91;26.62;96607.41;5114875;28;20684;-66
2021/12/19 08:40:41;;;;;;;3.60;2.30;;;;;;;16.17;27.41;96608.34;5116931;28;20020;-68
2021/12/19 08:43:07;;;;;;;3.97;2.20;;;;;;;14.53;29.34;96609.44;5116744;28;20027;-65
2021/12/19 08:45:33;;;;;;;4.55;3.10;;;;;;;13.63;31.46;96597.28;5115804;28;20024;-68
2021/12/19 08:47:59;;;;;;;4.97;3.90;;;;;;;13.26;31.84;96589.41;5117142;28;20020;-66
2021/12/19 08:50:25;;;;;;;2.63;2.40;;;;;;;13.32;32.32;96588.25;5116794;28;20027;-68
2021/12/19 08:52:52;;;;;;;1.95;1.80;;;;;;;12.77;32.05;96585.53;5116598;28;20020;-66
2021/12/19 08:55:19;;;;;;;4.00;2.45;;;;;;;12.03;34.74;96573.03;5116574;28;20020;-63
2021/12/19 08:57:44;;;;;;;4.93;2.22;;;;;;;12.01;34.80;96587.09;5116652;28;20501;-66
2021/12/19 09:00:11;;;;;;;2.40;2.20;;;;;;;12.03;34.70;96575.66;5116616;28;20031;-67
2021/12/19 09:02:38;;;;;;;3.25;2.20;;;;;;;11.65;34.72;96569.38;5116571;28;20404;-67
2021/12/19 09:05:05;;;;;;;3.13;2.40;;;;;;;10.95;35.35;96566.94;5116289;28;20030;-68
2021/12/19 09:07:30;;;;;;;2.20;2.00;;;;;;;10.16;37.13;96555.00;5116454;28;20036;-66
2021/12/19 09:09:56;;;;;;;2.38;2.13;;;;;;;9.26;40.37;96558.91;5116262;28;20019;-67
2021/12/19 09:12:22;;;;;;;3.65;2.85;;;;;;;8.11;42.28;96560.53;5116369;28;20027;-69
2021/12/19 09:14:48;;;;;;;2.47;2.28;;;;;;;7.40;44.86;96553.69;5116304;28;20032;-64
2021/12/19 09:17:14;;;;;;;2.60;2.30;;;;;;;7.21;46.25;96546.34;5116368;28;20012;-64
2021/12/19 09:19:41;;;;;;;3.42;2.83;;;;;;;6.73;44.49;96544.84;5116223;28;20055;-66
2021/12/19 09:22:07;;;;;;;2.63;1.70;;;;;;;6.67;45.27;96540.66;5115804;28;20040;-68
2021/12/19 09:24:33;;;;;;;2.95;1.92;;;;;;;6.67;44.06;96543.25;5116001;28;20040;-69
2021/12/19 09:27:00;;;;;;;2.75;1.90;;;;;;;6.78;41.74;96537.81;5116178;27;20024;-67
2021/12/19 09:29:30;;;;;;;2.40;1.95;;;;;;;6.61;43.16;96527.78;5115938;28;20024;-64
2021/12/19 09:31:56;;;;;;;3.58;2.03;;;;;;;6.30;43.14;96527.56;5115919;28;20030;-66
2021/12/19 09:34:26;;;;;;;3.33;2.05;;;;;;;6.07;44.84;96521.13;5115919;28;20027;-68
2021/12/19 09:36:51;;;;;;;2.22;1.60;;;;;;;6.00;47.00;96509.13;5115978;28;20024;-65
2021/12/19 09:39:18;;;;;;;2.25;1.85;;;;;;;5.82;44.94;96507.75;5115809;28;20022;-67
2021/12/19 09:41:45;;;;;;;2.22;1.95;;;;;;;5.65;47.30;96501.13;5115749;28;20381;-65
2021/12/19 09:44:14;;;;;;;3.08;1.80;;;;;;;5.47;47.26;96491.06;5114319;28;20035;-65
2021/12/19 09:46:42;;;;;;;2.42;1.90;;;;;;;5.51;45.94;96488.41;5115645;28;20034;-63
2021/12/19 09:49:11;;;;;;;1.77;1.60;;;;;;;5.49;47.28;96481.53;5114893;28;20462;-65
2021/12/19 09:51:38;;;;;;;2.17;1.95;;;;;;;5.65;47.46;96484.69;5115438;28;20100;-66
2021/12/19 09:54:06;;;;;;;1.90;1.67;;;;;;;5.48;46.30;96472.88;5115545;28;20031;-66
2021/12/19 09:56:34;;;;;;;2.53;2.13;;;;;;;5.59;46.62;96475.28;5115432;28;20107;-67
2021/12/19 09:59:16;;;;;;;2.60;1.98;;;;;;;5.62;45.14;96469.19;5115366;28;20055;-66
2021/12/19 10:01:42;;;;;;;2.55;1.60;;;;;;;5.62;42.50;96462.25;5115456;28;20130;-66
2021/12/19 10:04:29;;;;;;;1.75;1.65;;;;;;;5.64;42.84;96451.84;5115281;28;20085;-67
2021/12/19 10:07:17;;;;;;;4.50;2.60;;;;;;;5.65;45.33;96451.81;5115236;27;20065;-65
2021/12/19 10:10:10;;;;;;;3.00;2.05;;;;;;;5.73;44.90;96443.88;5113994;28;20054;-66
2021/12/19 10:12:48;;;;;;;3.28;1.77;;;;;;;5.77;44.88;96435.16;5115136;28;20039;-67
2021/12/19 10:15:25;;;;;;;3.03;2.33;;;;;;;5.87;44.92;96434.97;5115127;28;20035;-64
2021/12/19 10:18:05;;;;;;;2.83;1.90;;;;;;;5.91;45.25;96432.28;5115084;28;20023;-66
2021/12/19 10:20:51;;;;;;;1.50;1.38;;;;;;;5.88;43.70;96423.69;5114959;28;20031;-63
2021/12/19 10:23:26;;;;;;;3.17;2.30;;;;;;;5.75;45.76;96415.31;5114438;28;20448;-65
2021/12/19 10:26:07;;;;;;;2.08;1.88;;;;;;;5.75;44.67;96417.91;5114805;28;20027;-63
2021/12/19 10:28:47;;;;;;;2.22;1.90;;;;;;;5.86;44.86;96412.47;5114901;28;20119;-67
2021/12/19 10:31:13;;;;;;;2.85;1.60;;;;;;;5.88;43.13;96413.28;5114690;28;20019;-63
2021/12/19 10:33:39;;;;;;;2.10;1.73;;;;;;;5.93;42.01;96409.69;5114621;28;20032;-64
2021/12/19 10:36:07;;;;;;;2.05;1.63;;;;;;;5.86;44.55;96395.16;5114803;28;20023;-66
2021/12/19 10:38:45;;;;;;;4.70;2.20;;;;;;;5.76;45.35;96396.22;5114624;28;20032;-64
2021/12/19 10:41:22;;;;;;;3.72;2.10;;;;;;;5.69;43.78;96404.16;5114852;28;20027;-66
2021/12/19 10:44:05;;;;;;;2.65;1.83;;;;;;;5.72;43.36;96400.63;5114356;28;20359;-65
2021/12/19 10:46:40;;;;;;;2.85;2.00;;;;;;;5.59;45.38;96394.84;5114423;28;20051;-69
2021/12/19 10:49:21;;;;;;;2.47;2.03;;;;;;;5.50;47.47;96382.91;5114515;28;20473;-66
2021/12/19 10:51:48;;;;;;;4.13;3.05;;;;;;;5.63;46.89;96382.66;5114434;28;20063;-64
2021/12/19 10:54:14;;;;;;;3.30;2.70;;;;;;;5.55;45.64;96373.31;5114259;28;20039;-64
2021/12/19 10:56:41;;;;;;;2.60;1.92;;;;;;;5.50;45.41;96369.06;5112966;28;20077;-63
2021/12/19 10:59:16;;;;;;;3.15;2.17;;;;;;;5.54;45.58;96366.38;5114190;28;20469;-67
2021/12/19 11:01:52;;;;;;;3.10;2.60;;;;;;;5.49;46.71;96357.84;5113294;27;20421;-62
2021/12/19 11:04:23;;;;;;;3.15;2.70;;;;;;;5.33;47.68;96354.72;5114175;28;20474;-65
2021/12/19 11:06:59;;;;;;;7.22;2.72;;;;;;;5.24;48.00;96347.97;5114105;28;20027;-64
2021/12/19 11:09:34;;;;;;;2.63;1.80;;;;;;;5.15;47.37;96338.63;5114067;28;20115;-65
2021/12/19 11:12:10;;;;;;;5.28;2.53;;;;;;;5.21;48.06;96339.41;5114115;28;20091;-65
2021/12/19 11:14:48;;;;;;;4.32;1.80;;;;;;;5.20;46.97;96337.69;5114108;28;20385;-64
2021/12/19 11:17:18;;;;;;;2.08;1.80;;;;;;;5.13;48.30;96332.63;5113906;28;20453;-64
2021/12/19 11:19:44;;;;;;;2.85;2.08;;;;;;;5.10;47.23;96327.50;5114022;28;20469;-65
2021/12/19 11:22:12;;;;;;;2.30;1.83;;;;;;;5.00;48.74;96324.22;5113498;28;20063;-67
2021/12/19 11:24:38;;;;;;;4.22;2.55;;;;;;;5.00;48.32;96319.03;5113807;28;20122;-64
2021/12/19 11:27:07;;;;;;;2.92;2.40;;;;;;;5.02;48.49;96308.63;5113739;28;20127;-63
2021/12/19 11:29:33;;;;;;;6.60;4.50;;;;;;;4.84;49.29;96296.91;5113791;28;20015;-67
2021/12/19 11:32:04;;;;;;;3.08;2.30;;;;;;;4.78;48.44;96297.84;5113829;28;20088;-64
2021/12/19 11:34:57;;;;;;;3.55;2.40;;;;;;;4.86;47.90;96295.97;5113693;28;20053;-62
2021/12/19 11:37:32;;;;;;;2.35;2.10;;;;;;;4.97;48.05;96289.72;5113666;28;20020;-67
2021/12/19 11:39:59;;;;;;;1.98;1.80;;;;;;;4.96;48.64;96288.88;5113736;27;20024;-67
2021/12/19 11:42:33;;;;;;;3.13;2.33;;;;;;;5.04;47.64;96283.53;5113749;28;20080;-65
2021/12/19 11:47:57;;;;;;;5.80;3.15;;;;;;;5.10;47.82;96275.63;5113497;28;20031;-64
2021/12/19 11:50:32;;;;;;;4.25;3.22;;;;;;;5.15;47.00;96267.78;5113716;28;20020;-66
2021/12/19 11:53:07;;;;;;;2.55;2.13;;;;;;;5.22;45.54;96261.56;5112234;28;20051;-67
2021/12/19 11:55:38;;;;;;;12.70;7.28;;;;;;;5.05;47.84;96265.34;5113497;28;20032;-65
2021/12/19 11:58:07;;;;;;;2.22;2.03;;;;;;;5.03;46.38;96253.31;5113429;28;20065;-64
2021/12/19 12:00:57;;;;;;;1.80;1.63;;;;;;;4.88;45.33;96255.31;5113494;28;20027;-65
2021/12/19 12:03:45;;;;;;;1.95;1.70;;;;;;;4.90;45.79;96253.56;5113546;28;20051;-62
2021/12/19 12:06:25;;;;;;;2.33;1.80;;;;;;;4.96;46.40;96260.34;5113343;28;20040;-68
2021/12/19 12:12:36;;;;;;;9.98;3.72;;;;;;;4.99;47.77;96243.88;5091342;28;20078;-66
2021/12/19 12:15:05;;;;;;;7.30;3.40;;;;;;;5.08;47.49;96248.03;5078844;28;20040;-66
2021/12/19 12:17:53;;;;;;;2.25;1.80;;;;;;;5.03;45.87;96243.78;5094921;28;20257;-63
2021/12/19 12:20:21;;;;;;;2.20;1.80;;;;;;;4.96;45.37;96231.00;5054593;28;20427;-66
2021/12/19 12:22:56;;;;;;;3.45;1.88;;;;;;;4.91;46.23;96224.16;5054196;28;20139;-65
2021/12/19 12:25:27;;;;;;;2.55;1.60;;;;;;;4.99;46.49;96225.72;5054385;28;20037;-66
2021/12/19 12:28:02;;;;;;;;;;;;;;;4.99;45.84;96225.72;5054696;28;20531;-63
2021/12/19 12:30:52;;;;;;;3.00;1.55;;;;;;;4.92;46.01;96222.41;5054344;28;20291;-65
2021/12/19 12:33:20;;;;;;;2.25;1.98;;;;;;;4.82;46.57;96215.72;5054209;28;20037;-65
2021/12/19 12:35:50;;;;;;;2.60;1.45;;;;;;;4.81;45.12;96212.25;5054106;28;20641;-64
2021/12/19 12:38:16;;;;;;;2.00;1.63;;;;;;;4.71;45.97;96218.50;5037657;28;20041;-68
2021/12/19 12:43:23;;;;;;;2.50;2.08;;;;;;;4.72;46.31;96202.09;5050834;28;20123;-67
2021/12/19 12:46:07;;;;;;;2.03;1.83;;;;;;;4.77;46.04;96201.13;5073987;28;20119;-66
2021/12/19 12:48:38;;;;;;;4.25;2.28;;;;;;;4.67;45.76;96191.81;5073988;28;20032;-64
2021/12/19 12:51:26;;;;;;;2.38;1.98;;;;;;;4.62;47.30;96184.13;5091526;28;20114;-66
2021/12/19 12:53:56;;;;;;;2.65;1.88;;;;;;;4.68;46.31;96173.66;5074937;28;20176;-66
2021/12/19 12:56:28;;;;;;;3.97;2.25;;;;;;;4.73;46.94;96178.72;5116653;28;20370;-63
2021/12/19 12:58:56;;;;;;;1.90;1.75;;;;;;;4.85;47.28;96175.00;5116674;28;20024;-64
2021/12/19 13:01:49;;;;;;;4.25;2.00;;;;;;;4.84;47.83;96165.53;5116601;28;20106;-64